createdAt,value
2023-02-11T00:00:16.834Z,35.40
2023-02-11T00:02:46.842Z,35.54
2023-02-11T00:05:15.308Z,35.98
2023-02-11T00:07:42.437Z,36.03
2023-02-11T00:10:09.877Z,35.71
2023-02-11T00:12:37.443Z,35.82
2023-02-11T00:15:05.313Z,36.35
2023-02-11T00:17:32.817Z,36.14
2023-02-11T00:20:00.024Z,36.19
2023-02-11T00:22:27.142Z,35.73
2023-02-11T00:24:54.878Z,35.56
2023-02-11T00:27:22.066Z,35.02
2023-02-11T00:29:49.224Z,35.25
2023-02-11T00:32:16.658Z,35.26
2023-02-11T00:34:43.873Z,35.64
2023-02-11T00:37:12.240Z,35.40
2023-02-11T00:39:42.177Z,35.79
2023-02-11T00:42:09.339Z,35.92
2023-02-11T00:44:36.473Z,36.27
2023-02-11T00:47:03.877Z,36.80
2023-02-11T00:49:31.143Z,36.85
2023-02-11T00:51:58.294Z,36.16
2023-02-11T00:54:27.368Z,35.99
2023-02-11T00:56:56.169Z,35.54
2023-02-11T00:59:24.900Z,35.81
2023-02-11T01:01:52.337Z,35.60
2023-02-11T01:04:20.221Z,35.38
2023-02-11T01:06:47.580Z,36.46
2023-02-11T01:09:14.995Z,36.28
2023-02-11T01:11:42.211Z,36.17
2023-02-11T01:14:09.457Z,37.07
2023-02-11T01:16:36.872Z,36.85
2023-02-11T01:19:04.436Z,37.10
2023-02-11T01:21:31.592Z,36.32
2023-02-11T01:23:59.092Z,35.81
2023-02-11T01:26:26.265Z,35.24
2023-02-11T01:28:53.407Z,35.94
2023-02-11T01:31:20.867Z,35.25
2023-02-11T01:33:49.166Z,37.13
2023-02-11T01:36:16.305Z,36.79
2023-02-11T01:38:44.671Z,35.76
2023-02-11T01:41:13.369Z,38.04
2023-02-11T01:43:47.609Z,37.54
2023-02-11T01:46:21.071Z,35.26
2023-02-11T01:48:49.351Z,35.39
2023-02-11T01:51:17.803Z,37.57
2023-02-11T01:54:03.954Z,35.72
2023-02-11T01:56:50.197Z,35.65
2023-02-11T01:59:23.337Z,37.26
2023-02-11T02:01:52.659Z,36.12
2023-02-11T02:04:20.119Z,36.39
2023-02-11T02:06:51.248Z,36.03
2023-02-11T02:09:25.764Z,36.20
2023-02-11T02:11:53.270Z,36.65
2023-02-11T02:14:20.522Z,37.81
2023-02-11T02:16:47.943Z,36.68
2023-02-11T02:19:33.948Z,37.11
2023-02-11T02:22:20.139Z,37.17
2023-02-11T02:24:52.056Z,37.20
2023-02-11T02:27:19.454Z,36.79
2023-02-11T02:29:46.557Z,35.50
2023-02-11T02:32:32.255Z,36.02
2023-02-11T02:35:10.882Z,35.67
2023-02-11T02:37:40.588Z,35.04
2023-02-11T02:40:10.361Z,35.49
2023-02-11T02:42:37.689Z,36.04
2023-02-11T02:45:04.996Z,36.49
2023-02-11T02:47:32.409Z,35.35
2023-02-11T02:49:59.607Z,35.03
2023-02-11T02:52:45.550Z,34.84
2023-02-11T02:55:17.590Z,36.04
2023-02-11T02:57:58.780Z,36.85
2023-02-11T03:00:38.253Z,34.95
2023-02-11T03:03:20.877Z,36.35
2023-02-11T03:05:50.383Z,35.60
2023-02-11T03:08:20.684Z,36.04
2023-02-11T03:10:49.322Z,36.34
2023-02-11T03:13:17.416Z,35.90
2023-02-11T03:15:46.054Z,35.49
2023-02-11T03:18:14.375Z,35.36
2023-02-11T03:20:42.192Z,35.11
2023-02-11T03:23:12.035Z,34.74
2023-02-11T03:25:41.609Z,35.19
2023-02-11T03:28:15.261Z,35.74
2023-02-11T03:30:44.151Z,36.13
2023-02-11T03:33:33.610Z,36.06
2023-02-11T03:36:02.570Z,35.72
2023-02-11T03:38:31.341Z,35.60
2023-02-11T03:40:58.867Z,35.96
2023-02-11T03:43:31.093Z,36.20
2023-02-11T03:45:58.541Z,36.50
2023-02-11T03:48:30.942Z,35.96
2023-02-11T03:50:58.766Z,36.11
2023-02-11T03:53:25.914Z,35.38
2023-02-11T03:55:53.447Z,35.72
2023-02-11T03:58:20.928Z,36.11
2023-02-11T04:00:48.100Z,35.57
2023-02-11T04:03:15.558Z,35.97
2023-02-11T04:05:42.796Z,36.55
2023-02-11T04:08:09.941Z,35.64
2023-02-11T04:10:37.430Z,35.73
2023-02-11T04:13:04.602Z,35.46
2023-02-11T04:15:31.947Z,35.57
2023-02-11T04:17:59.374Z,35.73
2023-02-11T04:20:26.607Z,35.55
2023-02-11T04:22:53.746Z,35.15
2023-02-11T04:25:21.238Z,36.00
2023-02-11T04:27:48.436Z,35.68
2023-02-11T04:30:15.614Z,35.83
2023-02-11T04:32:43.074Z,35.09
2023-02-11T04:35:10.286Z,35.08
2023-02-11T04:37:37.401Z,35.82
2023-02-11T04:40:04.970Z,36.37
2023-02-11T04:42:32.190Z,35.88
2023-02-11T04:44:59.341Z,35.37
2023-02-11T04:47:26.778Z,35.66
2023-02-11T04:49:53.952Z,36.55
2023-02-11T04:52:21.088Z,36.50
2023-02-11T04:54:48.514Z,36.14
2023-02-11T04:57:15.666Z,35.14
2023-02-11T04:59:42.937Z,35.38
2023-02-11T05:02:10.344Z,35.31
2023-02-11T05:04:37.540Z,35.67
2023-02-11T05:07:04.650Z,34.74
2023-02-11T05:09:32.079Z,35.32
2023-02-11T05:11:59.230Z,35.30
2023-02-11T05:14:26.356Z,35.31
2023-02-11T05:16:53.794Z,36.77
2023-02-11T05:19:20.999Z,36.83
2023-02-11T05:22:01.699Z,35.40
2023-02-11T05:24:30.437Z,36.84
2023-02-11T05:26:57.605Z,37.47
2023-02-11T05:29:24.764Z,36.79
2023-02-11T05:31:52.559Z,34.82
2023-02-11T05:34:19.795Z,36.22
2023-02-11T05:36:46.925Z,36.86
2023-02-11T05:39:14.397Z,35.27
2023-02-11T05:41:41.602Z,35.92
2023-02-11T05:44:08.761Z,36.30
2023-02-11T05:46:36.208Z,36.70
2023-02-11T05:49:03.485Z,34.67
2023-02-11T05:51:30.618Z,34.28
2023-02-11T05:53:58.006Z,34.13
2023-02-11T05:56:25.178Z,33.95
2023-02-11T05:58:52.324Z,34.21
2023-02-11T06:01:19.842Z,34.35
2023-02-11T06:03:50.044Z,33.97
2023-02-11T06:06:17.518Z,34.04
2023-02-11T06:08:44.711Z,34.40
2023-02-11T06:11:14.132Z,34.77
2023-02-11T06:13:41.255Z,34.67
2023-02-11T06:16:08.453Z,34.67
2023-02-11T06:18:35.962Z,34.46
2023-02-11T06:21:06.238Z,34.47
2023-02-11T06:23:33.386Z,34.45
2023-02-11T06:26:04.591Z,34.80
2023-02-11T06:28:32.233Z,35.08
2023-02-11T06:31:01.353Z,35.39
2023-02-11T06:33:28.834Z,35.45
2023-02-11T06:35:55.964Z,35.72
2023-02-11T06:38:23.216Z,35.73
2023-02-11T06:40:50.689Z,35.66
2023-02-11T06:43:17.832Z,35.13
2023-02-11T06:45:44.938Z,35.25
2023-02-11T06:48:12.601Z,35.32
2023-02-11T06:50:39.743Z,35.41
2023-02-11T06:53:06.881Z,35.14
2023-02-11T06:55:34.895Z,34.63
2023-02-11T06:58:02.012Z,34.67
2023-02-11T07:00:29.618Z,34.86
2023-02-11T07:02:57.450Z,34.69
2023-02-11T07:05:24.649Z,34.39
2023-02-11T07:07:51.826Z,34.73
2023-02-11T07:10:19.333Z,34.45
2023-02-11T07:12:46.470Z,34.32
2023-02-11T07:15:13.902Z,33.98
2023-02-11T07:17:42.287Z,33.96
2023-02-11T07:20:12.456Z,33.92
2023-02-11T07:22:39.666Z,33.38
2023-02-11T07:25:07.789Z,33.62
2023-02-11T07:27:34.985Z,33.93
2023-02-11T07:30:02.201Z,34.27
2023-02-11T07:32:29.882Z,34.17
2023-02-11T07:34:57.622Z,34.41
2023-02-11T07:37:24.939Z,33.87
2023-02-11T07:39:52.455Z,33.73
2023-02-11T07:42:19.591Z,33.84
2023-02-11T07:44:49.273Z,33.22
2023-02-11T07:47:17.787Z,33.11
2023-02-11T07:49:45.518Z,33.52
2023-02-11T07:52:12.723Z,33.23
2023-02-11T07:54:40.223Z,33.53
2023-02-11T07:57:07.388Z,33.23
2023-02-11T07:59:34.548Z,32.80
2023-02-11T08:02:02.128Z,33.07
2023-02-11T08:04:29.622Z,33.09
2023-02-11T08:06:59.107Z,32.78
2023-02-11T08:09:26.430Z,32.46
2023-02-11T08:11:53.987Z,32.66
2023-02-11T08:14:21.168Z,32.24
2023-02-11T08:16:48.442Z,32.31
2023-02-11T08:19:16.153Z,32.12
2023-02-11T08:21:43.939Z,31.88
2023-02-11T08:24:11.122Z,31.61
2023-02-11T08:26:38.654Z,31.90
2023-02-11T08:29:07.702Z,31.57
2023-02-11T08:31:36.026Z,32.23
2023-02-11T08:34:03.575Z,31.42
2023-02-11T08:36:37.356Z,31.62
2023-02-11T08:39:18.213Z,31.19
2023-02-11T08:41:48.754Z,31.63
2023-02-11T08:44:16.955Z,31.44
2023-02-11T08:46:44.164Z,32.27
2023-02-11T08:49:11.573Z,31.98
2023-02-11T08:51:38.990Z,31.57
2023-02-11T08:54:09.515Z,31.88
2023-02-11T08:56:37.142Z,31.73
2023-02-11T08:59:04.695Z,31.59
2023-02-11T09:01:32.122Z,31.64
2023-02-11T09:03:59.660Z,31.53
2023-02-11T09:06:27.313Z,31.61
2023-02-11T09:08:55.113Z,31.74
2023-02-11T09:11:25.047Z,31.25
2023-02-11T09:13:54.423Z,31.39
2023-02-11T09:16:23.052Z,31.41
2023-02-11T09:18:50.379Z,30.99
2023-02-11T09:21:19.469Z,29.86
2023-02-11T09:23:47.900Z,29.60
2023-02-11T09:26:19.097Z,29.27
2023-02-11T09:28:46.783Z,28.29
2023-02-11T09:31:15.444Z,27.67
2023-02-11T09:33:47.788Z,27.17
2023-02-11T09:36:16.461Z,27.13
2023-02-11T09:38:43.892Z,26.03
2023-02-11T09:41:18.478Z,25.51
2023-02-11T09:43:46.443Z,25.99
2023-02-11T09:46:15.217Z,26.16
2023-02-11T09:48:43.066Z,26.90
2023-02-11T09:51:19.150Z,27.43
2023-02-11T09:53:46.374Z,28.45
2023-02-11T09:56:14.417Z,28.21
2023-02-11T09:58:42.464Z,27.92
2023-02-11T10:01:18.747Z,28.57
2023-02-11T10:03:47.490Z,29.27
2023-02-11T10:06:14.656Z,28.92
2023-02-11T10:08:59.633Z,29.79
2023-02-11T10:11:47.338Z,29.53
2023-02-11T10:14:21.895Z,30.75
2023-02-11T10:16:56.022Z,30.71
2023-02-11T10:19:30.237Z,30.30
2023-02-11T10:22:03.768Z,31.29
2023-02-11T10:24:30.973Z,31.39
2023-02-11T10:26:58.392Z,32.02
2023-02-11T10:29:28.549Z,31.55
2023-02-11T10:31:58.191Z,31.33
2023-02-11T10:34:25.837Z,31.93
2023-02-11T10:36:52.988Z,30.73
2023-02-11T10:39:23.963Z,30.07
2023-02-11T10:41:52.864Z,29.60
2023-02-11T10:44:22.257Z,29.35
2023-02-11T10:46:49.514Z,28.85
2023-02-11T10:49:35.483Z,29.65
2023-02-11T10:52:17.685Z,29.63
2023-02-11T10:54:58.254Z,29.32
2023-02-11T10:57:45.695Z,29.04
2023-02-11T11:00:21.887Z,28.85
2023-02-11T11:02:59.174Z,27.78
2023-02-11T11:05:30.926Z,28.51
2023-02-11T11:08:05.295Z,29.36
2023-02-11T11:10:37.140Z,29.05
2023-02-11T11:13:04.344Z,29.11
2023-02-11T11:15:31.907Z,27.97
2023-02-11T11:18:22.590Z,27.75
2023-02-11T11:20:57.689Z,27.71
2023-02-11T11:23:25.083Z,27.68
2023-02-11T11:26:18.771Z,26.85
2023-02-11T11:28:49.234Z,27.21
2023-02-11T11:31:27.514Z,26.85
2023-02-11T11:33:55.869Z,27.85
2023-02-11T11:36:24.387Z,27.30
2023-02-11T11:38:55.969Z,27.65
2023-02-11T11:41:27.534Z,27.03
2023-02-11T11:43:57.447Z,28.97
2023-02-11T11:46:26.724Z,27.81
2023-02-11T11:48:54.896Z,28.65
2023-02-11T11:51:22.141Z,28.05
2023-02-11T11:54:00.610Z,28.74
2023-02-11T11:56:30.078Z,29.43
2023-02-11T11:58:58.956Z,28.43
2023-02-11T12:01:29.161Z,28.52
2023-02-11T12:04:06.304Z,27.82
2023-02-11T12:06:37.428Z,27.76
2023-02-11T12:09:10.762Z,27.75
2023-02-11T12:11:56.745Z,28.29
2023-02-11T12:14:26.597Z,29.02
2023-02-11T12:17:02.553Z,30.04
2023-02-11T12:19:48.987Z,29.85
2023-02-11T12:22:25.900Z,29.19
2023-02-11T12:24:56.475Z,28.30
2023-02-11T12:27:28.743Z,28.44
2023-02-11T12:30:11.477Z,30.99
2023-02-11T12:32:49.985Z,28.77
2023-02-11T12:35:17.377Z,29.02
2023-02-11T12:38:03.696Z,29.16
2023-02-11T12:40:36.957Z,28.16
2023-02-11T12:43:16.670Z,29.08
2023-02-11T12:45:49.895Z,28.22
2023-02-11T12:48:22.613Z,28.25
2023-02-11T12:50:52.853Z,28.02
2023-02-11T12:53:20.427Z,26.26
2023-02-11T12:55:48.652Z,26.38
2023-02-11T12:58:20.282Z,26.83
2023-02-11T13:01:17.189Z,26.74
2023-02-11T13:03:49.040Z,26.66
2023-02-11T13:06:21.643Z,26.81
2023-02-11T13:08:54.371Z,26.24
2023-02-11T13:11:23.228Z,26.61
2023-02-11T13:13:50.665Z,26.40
2023-02-11T13:16:27.546Z,26.70
2023-02-11T13:19:04.182Z,26.88
2023-02-11T13:21:34.897Z,26.36
2023-02-11T13:24:06.670Z,25.96
2023-02-11T13:26:37.261Z,26.24
2023-02-11T13:29:09.317Z,26.67
2023-02-11T13:31:36.594Z,26.31
2023-02-11T13:34:03.995Z,26.12
2023-02-11T13:36:33.155Z,26.99
2023-02-11T13:39:03.486Z,27.03
2023-02-11T13:41:32.496Z,26.91
2023-02-11T13:44:04.640Z,26.64
2023-02-11T13:46:49.863Z,26.17
2023-02-11T13:49:29.128Z,25.59
2023-02-11T13:51:56.311Z,25.83
2023-02-11T13:54:25.284Z,26.88
2023-02-11T13:57:11.527Z,27.22
2023-02-11T13:59:39.069Z,26.79
2023-02-11T14:02:37.401Z,27.61
2023-02-11T14:05:23.736Z,26.08
2023-02-11T14:08:28.082Z,26.73
2023-02-11T14:11:12.349Z,26.07
2023-02-11T14:13:48.943Z,25.71
2023-02-11T14:16:31.594Z,26.18
2023-02-11T14:19:04.226Z,25.29
2023-02-11T14:21:32.670Z,25.52
2023-02-11T14:24:04.823Z,26.38
2023-02-11T14:26:50.196Z,26.32
2023-02-11T14:29:36.342Z,25.90
2023-02-11T14:32:06.204Z,26.12
2023-02-11T14:34:46.919Z,25.78
2023-02-11T14:37:17.121Z,26.72
2023-02-11T14:39:58.945Z,26.64
2023-02-11T14:42:27.193Z,27.13
2023-02-11T14:44:58.802Z,26.43
2023-02-11T14:47:28.808Z,26.46
2023-02-11T14:49:56.413Z,26.52
2023-02-11T14:52:33.209Z,27.02
2023-02-11T14:55:19.211Z,26.97
2023-02-11T14:57:49.426Z,27.65
2023-02-11T15:00:20.162Z,27.30
2023-02-11T15:02:47.885Z,27.75
2023-02-11T15:05:18.976Z,28.49
2023-02-11T15:07:47.497Z,28.46
2023-02-11T15:10:16.714Z,28.74
2023-02-11T15:12:47.686Z,28.91
2023-02-11T15:15:15.352Z,28.03
2023-02-11T15:17:42.646Z,27.71
2023-02-11T15:20:16.596Z,28.02
2023-02-11T15:22:44.215Z,28.34
2023-02-11T15:25:11.540Z,27.79
2023-02-11T15:27:40.050Z,27.83
2023-02-11T15:30:17.758Z,28.35
2023-02-11T15:32:45.271Z,28.16
2023-02-11T15:35:13.764Z,29.04
2023-02-11T15:37:40.963Z,29.53
2023-02-11T15:40:12.518Z,28.42
2023-02-11T15:42:52.086Z,29.06
2023-02-11T15:45:20.616Z,28.60
2023-02-11T15:47:56.268Z,28.56
2023-02-11T15:50:24.983Z,28.63
2023-02-11T15:52:53.070Z,28.64
2023-02-11T15:55:20.392Z,29.10
2023-02-11T15:57:54.994Z,29.24
2023-02-11T16:00:23.385Z,29.39
2023-02-11T16:02:51.062Z,29.12
2023-02-11T16:05:25.223Z,28.85
2023-02-11T16:07:53.127Z,28.60
2023-02-11T16:10:28.510Z,29.37
2023-02-11T16:12:59.295Z,29.08
2023-02-11T16:15:31.220Z,28.88
2023-02-11T16:17:58.844Z,28.97
2023-02-11T16:20:27.246Z,29.05
2023-02-11T16:22:54.649Z,28.65
2023-02-11T16:25:22.245Z,29.49
2023-02-11T16:27:50.891Z,29.04
2023-02-11T16:30:40.457Z,29.12
2023-02-11T16:33:08.417Z,29.08
2023-02-11T16:35:37.402Z,28.83
2023-02-11T16:38:04.584Z,28.32
2023-02-11T16:40:32.200Z,28.40
2023-02-11T16:42:59.528Z,28.29
2023-02-11T16:45:26.890Z,27.99
2023-02-11T16:47:54.485Z,27.69
2023-02-11T16:50:23.040Z,27.69
2023-02-11T16:52:52.337Z,27.61
2023-02-11T16:55:22.048Z,27.51
2023-02-11T16:57:49.739Z,27.78
2023-02-11T17:00:17.548Z,27.84
2023-02-11T17:02:45.029Z,27.94
2023-02-11T17:05:16.352Z,28.21
2023-02-11T17:07:43.741Z,28.20
2023-02-11T17:10:14.960Z,28.33
2023-02-11T17:12:42.269Z,28.12
2023-02-11T17:15:09.808Z,29.40
2023-02-11T17:17:37.429Z,29.75
2023-02-11T17:20:06.332Z,29.12
2023-02-11T17:22:33.738Z,29.89
2023-02-11T17:25:01.338Z,30.20
2023-02-11T17:27:28.681Z,29.58
2023-02-11T17:29:56.053Z,29.46
2023-02-11T17:32:23.524Z,29.81
2023-02-11T17:34:52.449Z,29.93
2023-02-11T17:37:19.810Z,29.68
2023-02-11T17:39:47.408Z,30.26
2023-02-11T17:42:14.882Z,30.67
2023-02-11T17:44:43.399Z,30.30
2023-02-11T17:47:11.404Z,30.15
2023-02-11T17:49:39.102Z,30.35
2023-02-11T17:52:06.521Z,30.81
2023-02-11T17:54:34.215Z,30.71
2023-02-11T17:57:01.567Z,30.27
2023-02-11T17:59:35.191Z,30.48
2023-02-11T18:02:03.184Z,31.32
2023-02-11T18:04:31.204Z,30.73
2023-02-11T18:06:58.564Z,29.98
2023-02-11T18:09:26.026Z,30.37
2023-02-11T18:11:53.945Z,30.91
2023-02-11T18:14:21.609Z,30.81
2023-02-11T18:16:52.557Z,30.86
2023-02-11T18:19:20.416Z,30.01
2023-02-11T18:21:50.220Z,30.26
2023-02-11T18:24:17.830Z,30.56
2023-02-11T18:26:45.460Z,30.80
2023-02-11T18:29:12.881Z,30.82
2023-02-11T18:31:40.280Z,30.63
2023-02-11T18:34:08.558Z,31.26
2023-02-11T18:36:37.008Z,30.61
2023-02-11T18:39:05.007Z,31.10
2023-02-11T18:41:33.054Z,31.66
2023-02-11T18:44:03.055Z,31.01
2023-02-11T18:46:31.311Z,31.24
2023-02-11T18:48:58.781Z,31.06
2023-02-11T18:51:27.406Z,30.78
2023-02-11T18:53:54.811Z,30.77
2023-02-11T18:56:23.121Z,31.09
2023-02-11T18:58:51.724Z,30.73
2023-02-11T19:01:20.920Z,31.51
2023-02-11T19:03:48.749Z,30.92
2023-02-11T19:06:17.086Z,31.33
2023-02-11T19:08:44.386Z,31.14
2023-02-11T19:11:12.225Z,31.43
2023-02-11T19:13:39.684Z,31.74
2023-02-11T19:16:11.043Z,31.17
2023-02-11T19:18:39.115Z,31.70
2023-02-11T19:21:09.821Z,31.20
2023-02-11T19:23:37.183Z,31.64
2023-02-11T19:26:06.327Z,31.74
2023-02-11T19:28:34.144Z,32.06
2023-02-11T19:31:08.538Z,31.92
2023-02-11T19:33:36.249Z,32.01
2023-02-11T19:36:04.678Z,33.45
2023-02-11T19:38:32.043Z,33.39
2023-02-11T19:40:59.685Z,32.99
2023-02-11T19:43:28.055Z,32.98
2023-02-11T19:45:58.558Z,33.33
2023-02-11T19:48:26.342Z,33.88
2023-02-11T19:50:56.973Z,33.98
2023-02-11T19:53:24.331Z,33.72
2023-02-11T19:55:52.347Z,33.63
2023-02-11T19:58:20.239Z,33.56
2023-02-11T20:00:47.641Z,33.11
2023-02-11T20:03:15.335Z,33.61
2023-02-11T20:05:47.276Z,33.32
2023-02-11T20:08:17.114Z,33.42
2023-02-11T20:10:44.500Z,32.74
2023-02-11T20:13:11.950Z,32.87
2023-02-11T20:15:39.626Z,33.23
2023-02-11T20:18:07.042Z,32.24
2023-02-11T20:20:34.453Z,32.79
2023-02-11T20:23:01.864Z,32.67
2023-02-11T20:25:29.206Z,33.08
2023-02-11T20:27:56.705Z,33.34
2023-02-11T20:30:24.386Z,35.07
2023-02-11T20:32:51.880Z,34.63
2023-02-11T20:35:19.290Z,34.70
2023-02-11T20:37:46.735Z,34.56
2023-02-11T20:40:14.057Z,34.73
2023-02-11T20:42:41.400Z,35.68
2023-02-11T20:45:09.070Z,35.21
2023-02-11T20:47:37.336Z,34.85
2023-02-11T20:50:05.695Z,35.14
2023-02-11T20:52:34.177Z,34.91
2023-02-11T20:55:01.710Z,34.68
2023-02-11T20:57:29.169Z,35.29
2023-02-11T20:59:57.230Z,35.69
2023-02-11T21:02:24.996Z,35.91
2023-02-11T21:04:52.466Z,35.56
2023-02-11T21:07:20.406Z,35.58
2023-02-11T21:09:47.738Z,36.57
2023-02-11T21:12:14.983Z,36.90
2023-02-11T21:14:42.590Z,37.14
2023-02-11T21:17:09.708Z,37.45
2023-02-11T21:19:37.104Z,37.07
2023-02-11T21:22:04.717Z,38.36
2023-02-11T21:24:32.183Z,38.63
2023-02-11T21:26:59.491Z,37.76
2023-02-11T21:29:27.024Z,38.92
2023-02-11T21:31:54.400Z,38.72
2023-02-11T21:34:21.847Z,38.89
2023-02-11T21:36:51.292Z,39.53
2023-02-11T21:39:19.202Z,41.49
2023-02-11T21:41:46.988Z,41.33
2023-02-11T21:44:14.588Z,42.25
2023-02-11T21:46:41.857Z,40.87
2023-02-11T21:49:09.499Z,41.39
2023-02-11T21:51:36.932Z,41.73
2023-02-11T21:54:04.257Z,42.17
2023-02-11T21:56:32.118Z,42.21
2023-02-11T21:59:00.103Z,42.27
2023-02-11T22:01:28.677Z,42.89
2023-02-11T22:03:56.441Z,43.70
2023-02-11T22:06:30.864Z,42.73
2023-02-11T22:08:58.737Z,45.07
2023-02-11T22:11:25.935Z,43.28
2023-02-11T22:13:53.761Z,44.93
2023-02-11T22:16:21.206Z,45.21
2023-02-11T22:18:48.486Z,46.33
2023-02-11T22:21:16.330Z,46.95
2023-02-11T22:23:43.943Z,45.63
2023-02-11T22:26:12.394Z,46.70
2023-02-11T22:28:40.848Z,48.67
2023-02-11T22:31:15.718Z,47.13
2023-02-11T22:33:43.350Z,48.19
2023-02-11T22:36:20.729Z,47.74
2023-02-11T22:38:47.982Z,47.13
2023-02-11T22:41:15.522Z,48.82
2023-02-11T22:43:42.876Z,50.07
2023-02-11T22:46:11.135Z,49.32
2023-02-11T22:48:38.661Z,50.12
2023-02-11T22:51:06.541Z,50.68
2023-02-11T22:53:33.671Z,49.89
2023-02-11T22:56:08.292Z,48.51
2023-02-11T22:58:35.888Z,48.15
2023-02-11T23:01:03.864Z,47.24
2023-02-11T23:03:31.386Z,46.98
2023-02-11T23:05:59.277Z,48.02
2023-02-11T23:08:27.158Z,46.86
2023-02-11T23:10:54.540Z,46.61
2023-02-11T23:13:21.698Z,47.34
2023-02-11T23:15:49.158Z,45.16
2023-02-11T23:18:16.343Z,45.65
2023-02-11T23:20:43.673Z,46.65
2023-02-11T23:23:11.438Z,46.84
2023-02-11T23:25:42.335Z,47.65
2023-02-11T23:28:12.110Z,48.76
2023-02-11T23:30:39.621Z,49.07
2023-02-11T23:33:06.804Z,47.30
2023-02-11T23:35:34.246Z,47.36
2023-02-11T23:38:01.657Z,47.42
2023-02-11T23:40:28.832Z,47.57
2023-02-11T23:42:55.992Z,47.05
2023-02-11T23:45:23.420Z,46.64
2023-02-11T23:47:50.797Z,47.15
2023-02-11T23:50:18.136Z,48.41
2023-02-11T23:52:45.559Z,48.09
2023-02-11T23:55:12.756Z,47.98
2023-02-11T23:57:39.944Z,45.69
